createdAt,value
2022-08-20T00:02:16.599Z,60.87
2022-08-20T00:04:45.182Z,61.69
2022-08-20T00:07:15.176Z,61.68
2022-08-20T00:09:44.261Z,61.44
2022-08-20T00:12:13.841Z,61.67
2022-08-20T00:14:42.111Z,61.58
2022-08-20T00:17:10.204Z,61.51
2022-08-20T00:19:38.126Z,61.90
2022-08-20T00:22:06.528Z,61.81
2022-08-20T00:24:35.955Z,61.78
2022-08-20T00:27:03.905Z,61.99
2022-08-20T00:29:31.820Z,62.13
2022-08-20T00:31:59.737Z,62.30
2022-08-20T00:34:27.884Z,62.63
2022-08-20T00:36:55.752Z,62.89
2022-08-20T00:39:23.827Z,62.71
2022-08-20T00:41:54.423Z,63.08
2022-08-20T00:44:23.811Z,63.70
2022-08-20T00:46:53.232Z,63.98
2022-08-20T00:49:24.855Z,63.87
2022-08-20T00:51:58.942Z,64.21
2022-08-20T00:54:31.294Z,64.20
2022-08-20T00:57:04.521Z,64.62
2022-08-20T00:59:35.387Z,64.47
2022-08-20T01:02:07.547Z,64.22
2022-08-20T01:04:36.837Z,64.33
2022-08-20T01:07:06.679Z,64.58
2022-08-20T01:09:58.231Z,64.79
2022-08-20T01:12:25.671Z,64.84
2022-08-20T01:14:54.461Z,64.95
2022-08-20T01:17:25.425Z,64.73
2022-08-20T01:19:58.836Z,64.69
2022-08-20T01:22:51.075Z,64.57
2022-08-20T01:25:29.676Z,64.51
2022-08-20T01:28:00.131Z,64.43
2022-08-20T01:30:29.955Z,64.08
2022-08-20T01:32:57.968Z,63.94
2022-08-20T01:35:26.770Z,64.02
2022-08-20T01:37:55.008Z,65.25
2022-08-20T01:40:40.532Z,65.31
2022-08-20T01:43:09.989Z,65.38
2022-08-20T01:45:40.082Z,65.39
2022-08-20T01:48:09.621Z,65.31
2022-08-20T01:50:42.953Z,65.26
2022-08-20T01:53:20.151Z,64.81
2022-08-20T01:55:48.182Z,64.71
2022-08-20T01:58:17.501Z,64.71
2022-08-20T02:00:45.355Z,64.71
2022-08-20T02:03:13.337Z,64.44
2022-08-20T02:05:41.205Z,64.06
2022-08-20T02:08:09.086Z,64.02
2022-08-20T02:10:37.397Z,63.41
2022-08-20T02:13:08.203Z,63.04
2022-08-20T02:15:39.742Z,63.04
2022-08-20T02:18:14.781Z,63.13
2022-08-20T02:20:44.409Z,63.52
2022-08-20T02:23:13.133Z,64.30
2022-08-20T02:25:43.108Z,64.23
2022-08-20T02:28:13.995Z,63.89
2022-08-20T02:30:46.922Z,63.95
2022-08-20T02:33:17.380Z,63.70
2022-08-20T02:35:47.979Z,63.11
2022-08-20T02:38:16.644Z,63.23
2022-08-20T02:40:45.887Z,63.01
2022-08-20T02:43:14.443Z,62.65
2022-08-20T02:45:44.653Z,62.73
2022-08-20T02:48:20.558Z,62.78
2022-08-20T02:50:51.369Z,62.46
2022-08-20T02:53:19.195Z,62.48
2022-08-20T02:55:47.084Z,62.89
2022-08-20T02:58:15.872Z,62.68
2022-08-20T03:00:45.144Z,62.52
2022-08-20T03:03:15.244Z,62.43
2022-08-20T03:05:45.213Z,61.92
2022-08-20T03:08:14.621Z,62.36
2022-08-20T03:10:44.142Z,62.16
2022-08-20T03:13:15.666Z,61.74
2022-08-20T03:15:47.991Z,61.66
2022-08-20T03:18:16.976Z,61.33
2022-08-20T03:20:46.366Z,61.03
2022-08-20T03:23:20.926Z,61.11
2022-08-20T03:25:49.593Z,60.65
2022-08-20T03:28:18.503Z,60.55
2022-08-20T03:30:50.293Z,60.88
2022-08-20T03:33:20.184Z,61.19
2022-08-20T03:35:48.807Z,61.45
2022-08-20T03:38:19.975Z,62.36
2022-08-20T03:41:00.740Z,62.34
2022-08-20T03:43:28.978Z,62.52
2022-08-20T03:45:58.167Z,62.10
2022-08-20T03:48:28.228Z,61.80
2022-08-20T03:50:57.573Z,61.88
2022-08-20T03:53:25.428Z,62.18
2022-08-20T03:55:59.313Z,61.76
2022-08-20T03:58:35.767Z,62.39
2022-08-20T04:01:07.677Z,61.80
2022-08-20T04:03:58.592Z,61.54
2022-08-20T04:06:26.626Z,61.45
2022-08-20T04:08:54.622Z,61.68
2022-08-20T04:11:23.821Z,61.74
2022-08-20T04:13:51.729Z,62.10
2022-08-20T04:16:22.364Z,62.57
2022-08-20T04:18:57.244Z,62.71
2022-08-20T04:21:32.668Z,63.27
2022-08-20T04:24:02.249Z,64.01
2022-08-20T04:26:30.162Z,65.58
2022-08-20T04:28:58.113Z,65.93
2022-08-20T04:31:32.641Z,66.41
2022-08-20T04:34:01.361Z,67.03
2022-08-20T04:36:29.442Z,67.79
2022-08-20T04:38:57.526Z,68.80
2022-08-20T04:41:25.582Z,70.09
2022-08-20T04:43:55.268Z,71.05
2022-08-20T04:46:25.474Z,73.20
2022-08-20T04:48:54.919Z,73.69
2022-08-20T04:51:24.535Z,75.09
2022-08-20T04:53:54.268Z,76.44
2022-08-20T04:56:25.914Z,77.39
2022-08-20T04:58:55.518Z,77.73
2022-08-20T05:01:24.226Z,77.73
2022-08-20T05:03:54.817Z,77.75
2022-08-20T05:06:26.146Z,78.59
2022-08-20T05:08:54.401Z,80.17
2022-08-20T05:11:33.831Z,81.08
2022-08-20T05:14:07.974Z,80.35
2022-08-20T05:16:38.995Z,80.51
2022-08-20T05:19:08.567Z,81.31
2022-08-20T05:21:38.337Z,81.26
2022-08-20T05:24:06.487Z,82.67
2022-08-20T05:26:34.542Z,83.03
2022-08-20T05:29:05.159Z,82.45
2022-08-20T05:31:34.597Z,82.59
2022-08-20T05:34:03.088Z,83.12
2022-08-20T05:36:31.944Z,84.34
2022-08-20T05:39:01.302Z,84.46
2022-08-20T05:41:30.562Z,84.19
2022-08-20T05:44:01.817Z,84.14
2022-08-20T05:46:31.256Z,84.30
2022-08-20T05:49:00.223Z,84.53
2022-08-20T05:51:28.930Z,84.89
2022-08-20T05:53:59.728Z,84.81
2022-08-20T05:56:31.154Z,85.20
2022-08-20T05:59:00.826Z,85.19
2022-08-20T06:01:28.930Z,85.48
2022-08-20T06:04:14.052Z,84.90
2022-08-20T06:06:46.150Z,82.92
2022-08-20T06:09:15.277Z,82.40
2022-08-20T06:11:44.588Z,81.73
2022-08-20T06:14:12.409Z,81.78
2022-08-20T06:16:57.364Z,82.22
2022-08-20T06:19:27.223Z,82.10
2022-08-20T06:22:01.101Z,81.99
2022-08-20T06:24:29.213Z,81.03
2022-08-20T06:27:00.125Z,81.01
2022-08-20T06:29:28.774Z,81.19
2022-08-20T06:31:57.333Z,79.65
2022-08-20T06:34:28.312Z,78.68
2022-08-20T06:36:59.520Z,78.72
2022-08-20T06:39:29.568Z,78.23
2022-08-20T06:41:59.559Z,75.94
2022-08-20T06:44:28.454Z,74.52
2022-08-20T06:47:00.856Z,72.95
2022-08-20T06:49:28.805Z,72.27
2022-08-20T06:52:03.417Z,72.43
2022-08-20T06:54:32.829Z,70.96
2022-08-20T06:57:02.415Z,69.51
2022-08-20T06:59:31.162Z,69.12
2022-08-20T07:01:59.006Z,67.76
2022-08-20T07:04:28.425Z,66.57
2022-08-20T07:06:57.686Z,66.88
2022-08-20T07:09:26.907Z,66.16
2022-08-20T07:11:54.997Z,65.29
2022-08-20T07:14:27.066Z,64.54
2022-08-20T07:16:55.125Z,64.55
2022-08-20T07:19:23.364Z,65.52
2022-08-20T07:21:51.213Z,66.61
2022-08-20T07:24:19.350Z,66.67
2022-08-20T07:26:47.196Z,66.81
2022-08-20T07:29:15.012Z,65.48
2022-08-20T07:32:01.993Z,66.72
2022-08-20T07:34:31.436Z,66.07
2022-08-20T07:37:00.875Z,65.10
2022-08-20T07:39:31.118Z,64.48
2022-08-20T07:42:03.954Z,63.05
2022-08-20T07:44:32.003Z,62.94
2022-08-20T07:47:01.344Z,64.62
2022-08-20T07:49:30.835Z,64.31
2022-08-20T07:51:58.723Z,64.80
2022-08-20T07:54:27.993Z,64.70
2022-08-20T07:57:02.482Z,63.41
2022-08-20T07:59:30.718Z,63.71
2022-08-20T08:01:59.217Z,63.66
2022-08-20T08:04:28.405Z,64.48
2022-08-20T08:07:00.014Z,64.19
2022-08-20T08:09:28.867Z,64.00
2022-08-20T08:12:00.859Z,62.76
2022-08-20T08:14:31.930Z,63.22
2022-08-20T08:17:03.441Z,63.95
2022-08-20T08:19:38.744Z,64.17
2022-08-20T08:22:11.507Z,63.75
2022-08-20T08:24:39.919Z,62.01
2022-08-20T08:27:08.841Z,61.29
2022-08-20T08:29:37.109Z,61.06
2022-08-20T08:32:06.575Z,60.34
2022-08-20T08:34:37.154Z,59.96
2022-08-20T08:37:05.554Z,59.63
2022-08-20T08:39:35.065Z,59.88
2022-08-20T08:42:05.154Z,59.21
2022-08-20T08:44:38.598Z,58.14
2022-08-20T08:47:13.745Z,57.87
2022-08-20T08:49:42.937Z,57.98
2022-08-20T08:52:14.633Z,58.17
2022-08-20T08:54:48.824Z,58.23
2022-08-20T08:57:17.420Z,58.10
2022-08-20T09:00:03.872Z,58.07
2022-08-20T09:02:35.357Z,57.75
2022-08-20T09:05:15.237Z,57.36
2022-08-20T09:07:46.337Z,55.57
2022-08-20T09:10:14.236Z,56.12
2022-08-20T09:12:56.132Z,55.17
2022-08-20T09:15:24.084Z,56.15
2022-08-20T09:17:52.026Z,56.40
2022-08-20T09:20:26.932Z,55.68
2022-08-20T09:22:55.268Z,56.24
2022-08-20T09:25:23.610Z,57.64
2022-08-20T09:27:51.546Z,58.05
2022-08-20T09:30:19.871Z,57.82
2022-08-20T09:32:48.291Z,58.45
2022-08-20T09:35:16.485Z,58.39
2022-08-20T09:37:46.986Z,57.24
2022-08-20T09:40:21.361Z,56.91
2022-08-20T09:42:50.595Z,56.15
2022-08-20T09:45:19.468Z,55.74
2022-08-20T09:47:56.694Z,55.19
2022-08-20T09:50:32.944Z,55.34
2022-08-20T09:53:04.363Z,54.57
2022-08-20T09:55:37.194Z,54.79
2022-08-20T09:58:10.731Z,54.20
2022-08-20T10:00:38.753Z,53.61
2022-08-20T10:03:06.693Z,54.32
2022-08-20T10:05:34.621Z,53.32
2022-08-20T10:08:06.837Z,53.49
2022-08-20T10:10:34.794Z,53.03
2022-08-20T10:13:03.014Z,53.16
2022-08-20T10:15:33.177Z,53.79
2022-08-20T10:18:05.761Z,54.59
2022-08-20T10:20:34.035Z,54.40
2022-08-20T10:23:05.968Z,55.29
2022-08-20T10:25:38.671Z,56.16
2022-08-20T10:28:09.038Z,56.61
2022-08-20T10:30:40.402Z,55.69
2022-08-20T10:33:31.174Z,55.66
2022-08-20T10:36:00.148Z,55.40
2022-08-20T10:38:29.624Z,54.91
2022-08-20T10:40:57.802Z,53.51
2022-08-20T10:43:25.700Z,53.65
2022-08-20T10:45:53.680Z,52.85
2022-08-20T10:48:21.847Z,54.23
2022-08-20T10:50:49.989Z,56.19
2022-08-20T10:53:18.511Z,59.99
2022-08-20T10:55:54.158Z,67.39
2022-08-20T10:58:23.769Z,71.81
2022-08-20T11:00:52.596Z,77.48
2022-08-20T11:03:34.774Z,81.60
2022-08-20T11:06:06.155Z,84.64
2022-08-20T11:08:36.117Z,86.56
2022-08-20T11:11:13.301Z,84.33
2022-08-20T11:16:55.052Z,86.49
2022-08-20T11:19:25.650Z,84.96
2022-08-20T11:21:53.654Z,80.21
2022-08-20T11:24:21.601Z,80.42
2022-08-20T11:26:53.280Z,81.04
2022-08-20T11:29:22.575Z,79.03
2022-08-20T11:31:50.620Z,78.92
2022-08-20T11:34:18.593Z,79.68
2022-08-20T11:36:47.722Z,77.99
2022-08-20T11:39:15.978Z,80.30
2022-08-20T11:41:43.920Z,75.39
2022-08-20T11:44:20.938Z,75.95
2022-08-20T11:46:49.817Z,74.71
2022-08-20T11:49:20.065Z,74.60
2022-08-20T11:51:49.722Z,75.06
2022-08-20T11:54:18.619Z,75.23
2022-08-20T11:56:47.723Z,75.51
2022-08-20T11:59:18.318Z,72.78
2022-08-20T12:01:46.639Z,70.29
2022-08-20T12:04:33.505Z,70.97
2022-08-20T12:07:10.280Z,68.38
2022-08-20T12:09:41.993Z,69.25
2022-08-20T12:12:19.587Z,68.65
2022-08-20T12:14:49.196Z,68.42
2022-08-20T12:17:19.867Z,67.08
2022-08-20T12:19:48.522Z,66.17
2022-08-20T12:22:23.165Z,66.23
2022-08-20T12:24:53.510Z,65.16
2022-08-20T12:27:24.451Z,63.99
2022-08-20T12:29:55.478Z,62.29
2022-08-20T12:32:24.903Z,61.29
2022-08-20T12:34:55.967Z,61.48
2022-08-20T12:37:26.693Z,61.06
2022-08-20T12:39:58.476Z,59.20
2022-08-20T12:42:27.577Z,58.62
2022-08-20T12:44:56.894Z,60.83
2022-08-20T12:47:27.225Z,61.04
2022-08-20T12:49:57.923Z,60.77
2022-08-20T12:52:26.867Z,61.03
2022-08-20T12:54:55.689Z,62.99
2022-08-20T12:57:26.354Z,63.16
2022-08-20T12:59:54.644Z,59.77
2022-08-20T13:02:24.263Z,59.41
2022-08-20T13:04:52.231Z,59.87
2022-08-20T13:07:20.226Z,57.74
2022-08-20T13:09:48.021Z,59.20
2022-08-20T13:12:15.893Z,60.90
2022-08-20T13:14:44.423Z,58.56
2022-08-20T13:17:12.203Z,57.65
2022-08-20T13:19:41.922Z,58.13
2022-08-20T13:22:09.992Z,57.85
2022-08-20T13:24:38.808Z,55.91
2022-08-20T13:27:08.547Z,54.57
2022-08-20T13:29:37.468Z,53.50
2022-08-20T13:32:06.509Z,55.64
2022-08-20T13:34:34.452Z,55.70
2022-08-20T13:37:03.844Z,55.49
2022-08-20T13:39:31.681Z,55.92
2022-08-20T13:41:59.472Z,55.47
2022-08-20T13:44:30.362Z,54.39
2022-08-20T13:47:01.184Z,55.43
2022-08-20T13:49:29.088Z,54.68
2022-08-20T13:52:03.331Z,54.52
2022-08-20T13:54:31.276Z,54.86
2022-08-20T13:57:05.730Z,54.56
2022-08-20T13:59:36.914Z,54.66
2022-08-20T14:02:07.305Z,53.72
2022-08-20T14:04:36.020Z,53.83
2022-08-20T14:07:12.664Z,54.06
2022-08-20T14:09:40.964Z,54.81
2022-08-20T14:12:10.403Z,55.43
2022-08-20T14:14:38.476Z,55.24
2022-08-20T14:17:25.532Z,54.31
2022-08-20T14:20:00.274Z,53.14
2022-08-20T14:22:30.724Z,53.40
2022-08-20T14:24:59.578Z,53.26
2022-08-20T14:27:31.172Z,52.36
2022-08-20T14:29:59.854Z,53.26
2022-08-20T14:32:28.306Z,53.14
2022-08-20T14:34:58.993Z,52.97
2022-08-20T14:37:29.741Z,51.80
2022-08-20T14:40:00.421Z,52.15
2022-08-20T14:42:29.845Z,51.96
2022-08-20T14:44:58.981Z,51.85
2022-08-20T14:47:28.895Z,51.81
2022-08-20T14:50:02.145Z,52.56
2022-08-20T14:52:30.431Z,52.24
2022-08-20T14:54:59.731Z,50.06
2022-08-20T14:57:27.669Z,49.49
2022-08-20T14:59:55.652Z,49.90
2022-08-20T15:02:23.470Z,49.75
2022-08-20T15:04:54.233Z,49.81
2022-08-20T15:07:26.392Z,49.64
2022-08-20T15:09:54.925Z,49.24
2022-08-20T15:12:24.854Z,48.83
2022-08-20T15:14:52.794Z,49.66
2022-08-20T15:17:22.507Z,48.49
2022-08-20T15:19:50.640Z,47.87
2022-08-20T15:22:19.710Z,46.83
2022-08-20T15:24:48.572Z,47.21
2022-08-20T15:27:22.620Z,48.04
2022-08-20T15:29:53.576Z,48.30
2022-08-20T15:32:22.519Z,48.18
2022-08-20T15:34:51.164Z,47.17
2022-08-20T15:37:21.279Z,47.19
2022-08-20T15:39:50.727Z,47.17
2022-08-20T15:42:19.370Z,45.72
2022-08-20T15:44:48.213Z,45.13
2022-08-20T15:47:25.108Z,45.41
2022-08-20T15:49:57.625Z,44.97
2022-08-20T15:52:31.969Z,44.96
2022-08-20T15:55:02.056Z,45.00
2022-08-20T15:57:45.156Z,43.00
2022-08-20T16:00:16.569Z,43.60
2022-08-20T16:03:14.231Z,44.24
2022-08-20T16:05:46.501Z,45.49
2022-08-20T16:08:32.536Z,46.36
2022-08-20T16:11:08.633Z,43.81
2022-08-20T16:13:41.236Z,44.15
2022-08-20T16:16:19.179Z,45.74
2022-08-20T16:18:52.328Z,46.63
2022-08-20T16:21:27.797Z,47.19
2022-08-20T16:23:56.601Z,47.64
2022-08-20T16:26:36.503Z,45.71
2022-08-20T16:29:11.347Z,44.65
2022-08-20T16:31:46.228Z,45.67
2022-08-20T16:34:33.520Z,46.03
2022-08-20T16:37:11.526Z,47.21
2022-08-20T16:39:47.583Z,47.64
2022-08-20T16:42:21.840Z,47.70
2022-08-20T16:44:51.696Z,46.97
2022-08-20T16:47:22.754Z,46.69
2022-08-20T16:49:58.911Z,46.65
2022-08-20T16:52:26.887Z,46.83
2022-08-20T16:54:54.771Z,47.27
2022-08-20T16:57:22.802Z,47.51
2022-08-20T16:59:59.029Z,48.24
2022-08-20T17:02:27.580Z,47.59
2022-08-20T17:04:59.333Z,45.35
2022-08-20T17:07:31.037Z,45.80
2022-08-20T17:10:13.085Z,46.21
2022-08-20T17:12:40.953Z,47.01
2022-08-20T17:15:19.143Z,47.34
2022-08-20T17:17:47.291Z,47.51
2022-08-20T17:20:20.464Z,46.82
2022-08-20T17:22:51.812Z,46.96
2022-08-20T17:25:29.579Z,47.43
2022-08-20T17:28:00.364Z,46.77
2022-08-20T17:30:36.698Z,46.48
2022-08-20T17:33:07.906Z,47.25
2022-08-20T17:35:41.705Z,47.10
2022-08-20T17:38:25.757Z,47.51
2022-08-20T17:41:00.413Z,47.18
2022-08-20T17:43:30.622Z,47.43
2022-08-20T17:46:01.882Z,47.06
2022-08-20T17:48:36.307Z,46.03
2022-08-20T17:51:19.396Z,46.27
2022-08-20T17:53:51.773Z,46.21
2022-08-20T17:56:23.428Z,45.74
2022-08-20T17:58:56.510Z,45.84
2022-08-20T18:01:26.265Z,45.84
2022-08-20T18:03:54.410Z,45.95
2022-08-20T18:06:31.093Z,46.45
2022-08-20T18:09:04.429Z,46.58
2022-08-20T18:11:38.146Z,46.24
2022-08-20T18:14:20.204Z,46.22
2022-08-20T18:17:05.330Z,46.51
2022-08-20T18:20:01.282Z,46.28
2022-08-20T18:22:33.278Z,46.76
2022-08-20T18:25:07.528Z,46.96
2022-08-20T18:27:40.957Z,47.61
2022-08-20T18:30:19.175Z,47.87
2022-08-20T18:32:49.865Z,47.59
2022-08-20T18:35:23.366Z,47.75
2022-08-20T18:37:52.691Z,48.32
2022-08-20T18:40:33.255Z,47.94
2022-08-20T18:43:13.534Z,47.96
2022-08-20T18:45:42.477Z,47.86
2022-08-20T18:48:21.919Z,48.31
2022-08-20T18:50:55.097Z,47.89
2022-08-20T18:53:33.889Z,48.42
2022-08-20T18:56:05.967Z,47.97
2022-08-20T18:58:37.966Z,48.08
2022-08-20T19:01:12.667Z,48.18
2022-08-20T19:03:45.745Z,48.04
2022-08-20T19:06:36.826Z,47.97
2022-08-20T19:09:14.994Z,48.49
2022-08-20T19:11:58.904Z,48.36
2022-08-20T19:15:02.515Z,48.82
2022-08-20T19:17:49.513Z,48.69
2022-08-20T19:20:23.585Z,48.94
2022-08-20T19:22:52.785Z,49.01
2022-08-20T19:25:31.154Z,49.17
2022-08-20T19:28:00.791Z,48.98
2022-08-20T19:30:35.942Z,49.21
2022-08-20T19:33:05.293Z,49.28
2022-08-20T19:35:33.249Z,49.73
2022-08-20T19:38:02.374Z,49.93
2022-08-20T19:40:39.193Z,50.25
2022-08-20T19:43:13.113Z,50.42
2022-08-20T19:45:45.310Z,50.19
2022-08-20T19:48:27.823Z,50.32
2022-08-20T19:51:06.364Z,50.49
2022-08-20T19:53:36.844Z,50.58
2022-08-20T19:56:10.557Z,50.66
2022-08-20T19:58:39.007Z,50.36
2022-08-20T20:01:12.041Z,50.34
2022-08-20T20:03:40.115Z,50.59
2022-08-20T20:06:17.082Z,50.33
2022-08-20T20:08:51.134Z,50.70
2022-08-20T20:11:28.127Z,50.63
2022-08-20T20:14:01.002Z,51.07
2022-08-20T20:16:31.710Z,50.91
2022-08-20T20:19:23.075Z,50.88
2022-08-20T20:21:50.402Z,51.36
2022-08-20T20:24:25.027Z,50.94
2022-08-20T20:26:54.922Z,50.85
2022-08-20T20:29:27.029Z,50.76
2022-08-20T20:31:57.237Z,50.71
2022-08-20T20:34:28.792Z,50.77
2022-08-20T20:37:06.782Z,51.08
2022-08-20T20:39:37.779Z,51.04
2022-08-20T20:42:11.041Z,51.17
2022-08-20T20:44:40.585Z,51.23
2022-08-20T20:47:19.310Z,51.14
2022-08-20T20:49:52.431Z,51.82
2022-08-20T20:52:23.029Z,52.36
2022-08-20T20:54:52.949Z,52.20
2022-08-20T20:57:38.739Z,52.04
2022-08-20T21:00:11.391Z,52.44
2022-08-20T21:02:39.769Z,52.83
2022-08-20T21:05:08.297Z,52.91
2022-08-20T21:07:44.922Z,52.82
2022-08-20T21:10:19.233Z,52.91
2022-08-20T21:12:52.659Z,53.02
2022-08-20T21:15:22.803Z,53.14
2022-08-20T21:17:50.713Z,52.88
2022-08-20T21:20:19.348Z,53.24
2022-08-20T21:22:47.264Z,53.29
2022-08-20T21:25:15.201Z,53.59
2022-08-20T21:27:46.381Z,53.70
2022-08-20T21:30:16.797Z,53.70
2022-08-20T21:32:44.712Z,54.05
2022-08-20T21:35:13.346Z,53.77
2022-08-20T21:37:41.304Z,53.45
2022-08-20T21:40:12.129Z,53.60
2022-08-20T21:42:41.455Z,53.82
2022-08-20T21:45:18.681Z,53.77
2022-08-20T21:47:48.873Z,53.77
2022-08-20T21:50:18.624Z,53.57
2022-08-20T21:52:59.122Z,53.58
2022-08-20T21:55:39.593Z,53.81
2022-08-20T21:58:08.313Z,53.75
2022-08-20T22:00:53.465Z,54.30
2022-08-20T22:03:22.321Z,54.31
2022-08-20T22:05:51.952Z,54.92
2022-08-20T22:08:20.826Z,55.24
2022-08-20T22:10:54.881Z,55.68
2022-08-20T22:13:24.034Z,55.42
2022-08-20T22:15:54.113Z,55.75
2022-08-20T22:18:21.969Z,56.37
2022-08-20T22:20:50.314Z,56.73
2022-08-20T22:23:18.228Z,56.86
2022-08-20T22:25:46.191Z,57.10
2022-08-20T22:28:14.220Z,57.18
2022-08-20T22:30:42.768Z,57.01
2022-08-20T22:33:14.615Z,57.52
2022-08-20T22:35:46.002Z,57.74
2022-08-20T22:38:14.069Z,57.97
2022-08-20T22:40:42.386Z,58.04
2022-08-20T22:43:10.580Z,58.16
2022-08-20T22:45:38.830Z,58.20
2022-08-20T22:48:08.116Z,58.47
2022-08-20T22:50:38.806Z,58.54
2022-08-20T22:53:08.704Z,59.10
2022-08-20T22:55:36.870Z,59.22
2022-08-20T22:58:05.145Z,59.13
2022-08-20T23:00:33.460Z,59.21
2022-08-20T23:03:03.136Z,59.35
2022-08-20T23:05:34.453Z,59.59
2022-08-20T23:08:04.503Z,60.12
2022-08-20T23:10:34.325Z,60.07
2022-08-20T23:13:02.222Z,60.02
2022-08-20T23:15:32.224Z,60.15
2022-08-20T23:18:05.526Z,60.37
2022-08-20T23:20:33.529Z,60.55
2022-08-20T23:23:02.906Z,61.09
2022-08-20T23:25:30.910Z,61.64
2022-08-20T23:28:04.354Z,62.04
2022-08-20T23:30:32.866Z,62.28
2022-08-20T23:33:01.568Z,62.43
2022-08-20T23:35:32.018Z,62.72
2022-08-20T23:38:01.341Z,63.29
2022-08-20T23:40:32.654Z,62.93
2022-08-20T23:43:00.653Z,63.45
2022-08-20T23:45:30.627Z,63.28
2022-08-20T23:47:58.495Z,63.71
2022-08-20T23:50:28.738Z,63.69
2022-08-20T23:52:57.865Z,63.37
2022-08-20T23:55:26.234Z,63.50
2022-08-20T23:57:55.483Z,64.48
